createdAt,value
2019-02-16T00:02:29.501Z,2.39
2019-02-16T00:05:00.313Z,2.27
2019-02-16T00:07:30.626Z,2.23
2019-02-16T00:10:00.846Z,2.03
2019-02-16T00:12:31.128Z,2.12
2019-02-16T00:15:01.454Z,2.21
2019-02-16T00:17:31.615Z,2.07
2019-02-16T00:20:02.018Z,2.15
2019-02-16T00:22:32.225Z,2.19
2019-02-16T00:25:02.471Z,2.13
2019-02-16T00:27:32.825Z,2.22
2019-02-16T00:30:03.071Z,2.22
2019-02-16T00:32:33.448Z,2.07
2019-02-16T00:35:03.894Z,2.07
2019-02-16T00:37:34.183Z,2.14
2019-02-16T00:40:04.672Z,2.18
2019-02-16T00:42:34.884Z,2.17
2019-02-16T00:45:05.252Z,2.09
2019-02-16T00:47:35.506Z,2.09
2019-02-16T00:50:05.972Z,2.05
2019-02-16T00:52:36.226Z,2.09
2019-02-16T00:55:06.478Z,2.05
2019-02-16T00:57:36.701Z,2.07
2019-02-16T01:00:08.204Z,2.06
2019-02-16T01:02:38.433Z,2.01
2019-02-16T01:05:09.050Z,1.99
2019-02-16T01:07:39.350Z,2.00
2019-02-16T01:10:11.021Z,1.98
2019-02-16T01:12:41.247Z,2.06
2019-02-16T01:15:11.878Z,2.02
2019-02-16T01:17:42.117Z,2.01
2019-02-16T01:20:12.808Z,2.05
2019-02-16T01:22:43.223Z,2.05
2019-02-16T01:25:13.479Z,2.11
2019-02-16T01:27:43.700Z,2.23
2019-02-16T01:30:14.026Z,2.25
2019-02-16T01:32:44.240Z,2.19
2019-02-16T01:35:14.484Z,2.07
2019-02-16T01:37:44.982Z,2.02
2019-02-16T01:40:15.286Z,2.10
2019-02-16T01:42:45.550Z,2.03
2019-02-16T01:45:15.792Z,2.04
2019-02-16T01:47:46.010Z,2.02
2019-02-16T01:50:16.220Z,2.01
2019-02-16T01:52:46.596Z,1.98
2019-02-16T01:55:16.905Z,2.01
2019-02-16T01:57:48.148Z,1.99
2019-02-16T02:00:18.422Z,1.93
2019-02-16T02:02:48.680Z,1.92
2019-02-16T02:05:19.250Z,1.96
2019-02-16T02:07:49.532Z,1.93
2019-02-16T02:10:19.989Z,1.96
2019-02-16T02:12:50.213Z,2.06
2019-02-16T02:15:21.434Z,2.01
2019-02-16T02:17:51.755Z,1.93
2019-02-16T02:20:22.008Z,2.02
2019-02-16T02:22:52.227Z,2.04
2019-02-16T02:25:22.455Z,2.02
2019-02-16T02:27:52.872Z,2.05
2019-02-16T02:30:23.184Z,2.05
2019-02-16T02:32:53.413Z,2.02
2019-02-16T02:35:23.655Z,1.82
2019-02-16T02:37:53.912Z,1.94
2019-02-16T02:40:24.184Z,2.04
2019-02-16T02:42:54.458Z,2.03
2019-02-16T02:45:24.692Z,2.02
2019-02-16T02:47:55.120Z,2.01
2019-02-16T02:50:25.340Z,2.05
2019-02-16T02:52:56.795Z,2.12
2019-02-16T02:55:27.120Z,2.14
2019-02-16T02:57:57.346Z,2.03
2019-02-16T03:00:27.851Z,2.13
2019-02-16T03:02:58.051Z,2.18
2019-02-16T03:05:28.667Z,2.05
2019-02-16T03:07:59.077Z,2.15
2019-02-16T03:10:29.340Z,2.15
2019-02-16T03:12:59.553Z,2.28
2019-02-16T03:15:29.875Z,2.17
2019-02-16T03:18:00.221Z,2.21
2019-02-16T03:20:30.454Z,2.34
2019-02-16T03:23:17.684Z,2.23
2019-02-16T03:26:06.732Z,2.17
2019-02-16T03:28:58.316Z,2.15
2019-02-16T03:32:05.484Z,2.23
2019-02-16T03:34:57.210Z,2.19
2019-02-16T03:38:08.713Z,2.31
2019-02-16T03:40:39.197Z,2.20
2019-02-16T03:43:09.479Z,2.20
2019-02-16T03:45:39.717Z,2.26
2019-02-16T03:48:09.975Z,2.28
2019-02-16T03:50:40.227Z,2.25
2019-02-16T03:53:10.512Z,2.25
2019-02-16T03:55:40.936Z,2.15
2019-02-16T03:58:11.159Z,2.23
2019-02-16T04:00:41.444Z,2.13
2019-02-16T04:03:12.753Z,2.17
2019-02-16T04:05:43.456Z,2.13
2019-02-16T04:08:13.708Z,2.11
2019-02-16T04:10:44.003Z,2.17
2019-02-16T04:13:14.435Z,2.27
2019-02-16T04:15:44.727Z,2.31
2019-02-16T04:18:14.950Z,2.16
2019-02-16T04:20:45.239Z,2.15
2019-02-16T04:23:15.465Z,2.12
2019-02-16T04:25:45.719Z,2.12
2019-02-16T04:28:16.014Z,2.04
2019-02-16T04:30:46.449Z,1.99
2019-02-16T04:33:16.638Z,2.05
2019-02-16T04:35:46.849Z,2.11
2019-02-16T04:38:17.115Z,2.24
2019-02-16T04:40:47.445Z,2.34
2019-02-16T04:43:17.765Z,2.30
2019-02-16T04:45:47.984Z,2.38
2019-02-16T04:48:18.223Z,2.22
2019-02-16T04:50:49.491Z,2.23
2019-02-16T04:53:19.734Z,2.29
2019-02-16T04:55:49.918Z,2.27
2019-02-16T04:58:20.155Z,2.26
2019-02-16T05:00:50.423Z,2.18
2019-02-16T05:03:20.620Z,2.14
2019-02-16T05:05:51.231Z,2.21
2019-02-16T05:08:21.445Z,2.18
2019-02-16T05:10:51.623Z,2.32
2019-02-16T05:13:22.901Z,2.33
2019-02-16T05:15:53.232Z,2.24
2019-02-16T05:18:23.467Z,2.50
2019-02-16T05:20:53.808Z,2.48
2019-02-16T05:23:24.064Z,2.46
2019-02-16T05:25:54.284Z,2.47
2019-02-16T05:28:24.511Z,2.41
2019-02-16T05:30:54.748Z,2.39
2019-02-16T05:33:24.999Z,2.34
2019-02-16T05:35:55.269Z,2.30
2019-02-16T05:38:25.514Z,2.39
2019-02-16T05:40:55.739Z,2.30
2019-02-16T05:43:25.956Z,2.27
2019-02-16T05:45:56.211Z,2.27
2019-02-16T05:48:27.427Z,2.37
2019-02-16T05:50:57.705Z,2.36
2019-02-16T05:53:27.977Z,2.30
2019-02-16T05:55:58.544Z,2.30
2019-02-16T05:58:28.738Z,2.26
2019-02-16T06:00:59.069Z,2.20
2019-02-16T06:03:29.277Z,2.30
2019-02-16T06:06:00.007Z,2.36
2019-02-16T06:08:30.203Z,2.39
2019-02-16T06:11:00.388Z,2.49
2019-02-16T06:13:30.703Z,2.52
2019-02-16T06:16:00.951Z,2.59
2019-02-16T06:18:31.234Z,2.45
2019-02-16T06:21:02.051Z,2.28
2019-02-16T06:23:32.387Z,2.39
2019-02-16T06:26:02.678Z,2.31
2019-02-16T06:28:35.632Z,2.40
2019-02-16T06:31:05.908Z,2.30
2019-02-16T06:33:36.148Z,2.43
2019-02-16T06:36:25.360Z,2.49
2019-02-16T06:38:55.633Z,2.49
2019-02-16T06:41:25.898Z,2.60
2019-02-16T06:43:56.260Z,2.63
2019-02-16T06:46:26.530Z,2.69
2019-02-16T06:48:56.743Z,2.66
2019-02-16T06:51:27.016Z,2.65
2019-02-16T06:53:57.298Z,2.72
2019-02-16T06:56:34.980Z,2.74
2019-02-16T06:59:09.786Z,2.80
2019-02-16T07:01:40.236Z,2.78
2019-02-16T07:04:10.486Z,2.91
2019-02-16T07:06:41.034Z,3.09
2019-02-16T07:09:11.278Z,3.14
2019-02-16T07:11:41.506Z,3.16
2019-02-16T07:14:11.747Z,3.20
2019-02-16T07:17:18.907Z,3.15
2019-02-16T07:19:52.087Z,3.33
2019-02-16T07:22:22.329Z,3.41
2019-02-16T07:24:52.538Z,3.45
2019-02-16T07:27:22.766Z,3.51
2019-02-16T07:29:53.106Z,3.54
2019-02-16T07:32:23.331Z,3.58
2019-02-16T07:34:53.770Z,3.59
2019-02-16T07:37:23.975Z,3.66
2019-02-16T07:39:54.193Z,3.76
2019-02-16T07:42:24.645Z,3.84
2019-02-16T07:45:19.868Z,3.90
2019-02-16T07:48:09.062Z,3.98
2019-02-16T07:50:46.583Z,4.06
2019-02-16T07:53:38.998Z,4.13
2019-02-16T07:56:33.974Z,4.22
2019-02-16T07:59:11.744Z,4.32
2019-02-16T08:02:00.898Z,4.49
2019-02-16T08:04:39.892Z,4.61
2019-02-16T08:07:29.346Z,4.76
2019-02-16T08:10:20.380Z,4.89
2019-02-16T08:14:57.229Z,5.04
2019-02-16T08:16:15.771Z,5.20
2019-02-16T08:18:53.994Z,5.38
2019-02-16T08:21:46.213Z,5.57
2019-02-16T08:24:47.278Z,5.71
2019-02-16T08:30:56.836Z,6.36
2019-02-16T08:33:50.191Z,8.51
2019-02-16T08:36:27.778Z,9.25
2019-02-16T08:39:07.133Z,9.80
2019-02-16T08:42:07.903Z,10.85
2019-02-16T08:45:00.305Z,11.00
2019-02-16T08:47:44.081Z,10.84
2019-02-16T08:50:26.744Z,11.31
2019-02-16T08:53:10.825Z,11.11
2019-02-16T08:55:56.371Z,12.30
2019-02-16T08:58:54.478Z,13.12
2019-02-16T09:01:43.183Z,13.28
2019-02-16T09:04:24.590Z,11.95
2019-02-16T09:10:46.299Z,12.34
2019-02-16T09:13:27.568Z,12.81
2019-02-16T09:16:07.073Z,12.22
2019-02-16T09:18:59.331Z,13.52
2019-02-16T09:21:52.544Z,13.09
2019-02-16T09:24:50.032Z,14.97
2019-02-16T09:27:43.840Z,14.78
2019-02-16T09:30:38.951Z,14.03
2019-02-16T09:33:15.453Z,15.11
2019-02-16T09:36:10.751Z,14.29
2019-02-16T09:39:07.751Z,14.62
2019-02-16T09:41:59.671Z,15.56
2019-02-16T09:44:38.589Z,14.24
2019-02-16T09:47:29.645Z,14.96
2019-02-16T09:50:18.814Z,15.00
2019-02-16T09:53:10.864Z,14.49
2019-02-16T09:55:56.940Z,15.46
2019-02-16T09:58:41.043Z,16.40
2019-02-16T10:01:30.224Z,17.46
2019-02-16T10:04:27.619Z,16.67
2019-02-16T10:07:15.356Z,17.67
2019-02-16T10:09:54.037Z,18.43
2019-02-16T10:12:35.813Z,19.60
2019-02-16T10:15:24.440Z,17.84
2019-02-16T10:18:06.564Z,18.32
2019-02-16T10:21:48.398Z,17.83
2019-02-16T10:24:46.056Z,18.05
2019-02-16T10:27:44.823Z,16.95
2019-02-16T10:30:30.296Z,17.60
2019-02-16T10:33:17.275Z,16.75
2019-02-16T10:36:26.737Z,16.74
2019-02-16T10:39:42.797Z,16.59
2019-02-16T10:42:37.546Z,16.42
2019-02-16T10:45:25.290Z,15.98
2019-02-16T10:48:05.158Z,16.28
2019-02-16T10:51:06.978Z,16.48
2019-02-16T10:54:03.522Z,15.67
2019-02-16T10:56:40.656Z,16.15
2019-02-16T10:59:28.527Z,16.06
2019-02-16T11:02:20.839Z,16.62
2019-02-16T11:04:57.770Z,16.65
2019-02-16T11:07:44.158Z,16.20
2019-02-16T11:10:33.043Z,15.99
2019-02-16T11:13:14.593Z,16.33
2019-02-16T11:16:09.808Z,16.42
2019-02-16T11:19:13.885Z,16.44
2019-02-16T11:22:02.107Z,16.64
2019-02-16T11:24:56.266Z,16.79
2019-02-16T11:27:51.663Z,16.78
2019-02-16T11:30:37.910Z,16.99
2019-02-16T11:33:35.663Z,17.12
2019-02-16T11:36:30.134Z,17.58
2019-02-16T11:39:38.077Z,17.54
2019-02-16T11:42:18.491Z,17.82
2019-02-16T11:45:14.069Z,17.70
2019-02-16T11:48:04.994Z,18.03
2019-02-16T11:50:51.564Z,17.83
2019-02-16T11:53:41.121Z,17.80
2019-02-16T11:56:29.615Z,18.08
2019-02-16T11:59:10.984Z,19.10
2019-02-16T12:02:01.661Z,20.39
2019-02-16T12:04:37.388Z,20.52
2019-02-16T12:07:18.623Z,18.74
2019-02-16T12:10:13.567Z,19.03
2019-02-16T12:12:54.158Z,19.85
2019-02-16T12:16:00.005Z,20.24
2019-02-16T12:19:01.450Z,20.27
2019-02-16T12:21:56.340Z,20.38
2019-02-16T12:24:33.959Z,19.04
2019-02-16T12:27:23.112Z,18.94
2019-02-16T12:30:04.823Z,18.76
2019-02-16T12:32:44.717Z,18.50
2019-02-16T12:35:33.706Z,18.92
2019-02-16T12:38:10.395Z,18.94
2019-02-16T12:41:08.368Z,18.83
2019-02-16T12:43:56.258Z,18.95
2019-02-16T12:46:49.718Z,18.65
2019-02-16T12:49:47.727Z,19.09
2019-02-16T12:52:48.855Z,19.00
2019-02-16T12:55:41.789Z,19.42
2019-02-16T12:58:38.083Z,19.58
2019-02-16T13:01:36.105Z,20.12
2019-02-16T13:04:31.340Z,21.25
2019-02-16T13:07:25.151Z,20.76
2019-02-16T13:10:37.595Z,19.93
2019-02-16T13:13:19.774Z,19.31
2019-02-16T13:15:59.898Z,20.26
2019-02-16T13:19:17.312Z,19.61
2019-02-16T13:22:01.943Z,19.98
2019-02-16T13:24:53.870Z,19.41
2019-02-16T13:27:40.235Z,20.30
2019-02-16T13:30:29.435Z,19.43
2019-02-16T13:33:27.500Z,18.98
2019-02-16T13:36:25.398Z,19.94
2019-02-16T13:39:11.249Z,19.14
2019-02-16T13:41:57.224Z,18.81
2019-02-16T13:44:45.204Z,18.80
2019-02-16T13:47:26.779Z,18.88
2019-02-16T13:50:20.352Z,18.55
2019-02-16T13:53:17.355Z,18.54
2019-02-16T13:56:15.834Z,18.32
2019-02-16T13:59:04.466Z,18.21
2019-02-16T14:01:56.504Z,18.60
2019-02-16T14:04:33.843Z,18.41
2019-02-16T14:07:17.241Z,18.73
2019-02-16T14:09:56.761Z,18.61
2019-02-16T14:12:58.197Z,18.31
2019-02-16T14:15:50.191Z,18.19
2019-02-16T14:18:20.670Z,18.24
2019-02-16T14:20:50.942Z,17.94
2019-02-16T14:23:21.251Z,17.70
2019-02-16T14:25:51.653Z,17.91
2019-02-16T14:28:23.733Z,18.06
2019-02-16T14:30:55.571Z,17.64
2019-02-16T14:33:25.846Z,17.61
2019-02-16T14:35:56.058Z,17.88
2019-02-16T14:38:37.166Z,17.48
2019-02-16T14:41:07.428Z,17.37
2019-02-16T14:43:37.603Z,17.53
2019-02-16T14:46:07.856Z,17.41
2019-02-16T14:48:38.032Z,17.23
2019-02-16T14:51:08.242Z,16.85
2019-02-16T14:53:38.449Z,17.14
2019-02-16T14:56:08.702Z,17.23
2019-02-16T14:58:38.918Z,17.07
2019-02-16T15:01:09.341Z,17.05
2019-02-16T15:03:39.558Z,16.85
2019-02-16T15:06:09.899Z,16.65
2019-02-16T15:08:40.287Z,16.54
2019-02-16T15:11:10.509Z,16.41
2019-02-16T15:13:40.737Z,16.48
2019-02-16T15:16:18.780Z,16.41
2019-02-16T15:18:49.565Z,16.21
2019-02-16T15:21:19.870Z,16.33
2019-02-16T15:23:50.185Z,16.26
2019-02-16T15:26:28.349Z,16.52
2019-02-16T15:28:52.297Z,16.11
2019-02-16T15:31:25.194Z,16.45
2019-02-16T15:37:06.847Z,15.30
2019-02-16T15:39:45.252Z,14.98
2019-02-16T15:42:17.165Z,14.88
2019-02-16T15:44:47.528Z,14.71
2019-02-16T15:47:17.785Z,14.73
2019-02-16T15:49:47.997Z,14.57
2019-02-16T15:52:18.231Z,14.02
2019-02-16T15:54:48.458Z,13.70
2019-02-16T15:57:19.691Z,13.51
2019-02-16T15:59:50.552Z,13.53
2019-02-16T16:02:22.498Z,13.63
2019-02-16T16:04:52.694Z,13.59
2019-02-16T16:07:22.890Z,13.60
2019-02-16T16:10:17.904Z,13.11
2019-02-16T16:13:02.739Z,13.11
2019-02-16T16:15:42.342Z,12.88
2019-02-16T16:18:48.229Z,12.67
2019-02-16T16:21:32.867Z,12.34
2019-02-16T16:24:16.533Z,12.63
2019-02-16T16:27:08.827Z,12.59
2019-02-16T16:30:05.852Z,12.36
2019-02-16T16:33:06.409Z,12.41
2019-02-16T16:35:45.648Z,11.89
2019-02-16T16:38:33.162Z,11.54
2019-02-16T16:41:22.346Z,11.95
2019-02-16T16:44:18.912Z,11.77
2019-02-16T16:47:17.194Z,11.24
2019-02-16T16:50:04.728Z,10.84
2019-02-16T16:52:45.459Z,11.08
2019-02-16T16:55:26.414Z,10.65
2019-02-16T16:58:24.512Z,10.56
2019-02-16T17:01:03.390Z,10.39
2019-02-16T17:03:46.285Z,10.13
2019-02-16T17:06:44.624Z,10.03
2019-02-16T17:09:28.469Z,10.06
2019-02-16T17:12:34.977Z,10.12
2019-02-16T17:15:26.954Z,10.10
2019-02-16T17:18:14.956Z,9.88
2019-02-16T17:21:13.526Z,9.82
2019-02-16T17:24:05.865Z,9.46
2019-02-16T17:26:53.531Z,9.31
2019-02-16T17:29:41.229Z,9.69
2019-02-16T17:32:36.240Z,9.61
2019-02-16T17:35:13.320Z,9.12
2019-02-16T17:38:02.565Z,9.23
2019-02-16T17:40:43.253Z,8.85
2019-02-16T17:43:25.867Z,8.82
2019-02-16T17:46:16.522Z,9.05
2019-02-16T17:49:06.936Z,8.76
2019-02-16T17:51:54.760Z,8.71
2019-02-16T17:54:43.336Z,8.82
2019-02-16T17:57:31.002Z,9.07
2019-02-16T18:00:16.305Z,8.63
2019-02-16T18:03:17.338Z,8.33
2019-02-16T18:06:12.828Z,8.38
2019-02-16T18:09:02.144Z,8.22
2019-02-16T18:12:00.756Z,8.01
2019-02-16T18:15:01.884Z,8.03
2019-02-16T18:17:46.672Z,8.01
2019-02-16T18:20:26.181Z,8.00
2019-02-16T18:23:07.543Z,7.90
2019-02-16T18:25:57.086Z,7.81
2019-02-16T18:28:57.350Z,7.78
2019-02-16T18:31:43.444Z,7.71
2019-02-16T18:34:35.907Z,7.68
2019-02-16T18:37:23.630Z,7.63
2019-02-16T18:40:09.261Z,7.74
2019-02-16T18:42:56.914Z,7.83
2019-02-16T18:45:47.256Z,7.61
2019-02-16T18:48:42.400Z,7.54
2019-02-16T18:51:49.877Z,7.41
2019-02-16T18:54:38.858Z,7.47
2019-02-16T18:57:28.043Z,7.35
2019-02-16T19:00:29.668Z,7.37
2019-02-16T19:03:13.858Z,7.25
2019-02-16T19:05:54.084Z,7.27
2019-02-16T19:08:30.017Z,7.46
2019-02-16T19:11:28.116Z,7.21
2019-02-16T19:14:07.782Z,7.23
2019-02-16T19:16:51.893Z,7.34
2019-02-16T19:19:31.115Z,7.30
2019-02-16T19:22:20.447Z,7.00
2019-02-16T19:25:12.777Z,6.90
2019-02-16T19:28:02.068Z,6.74
2019-02-16T19:30:48.023Z,6.72
2019-02-16T19:33:46.409Z,6.65
2019-02-16T19:36:21.420Z,6.56
2019-02-16T19:39:04.379Z,6.53
2019-02-16T19:41:42.905Z,6.55
2019-02-16T19:44:19.667Z,6.55
2019-02-16T19:47:07.689Z,6.58
2019-02-16T19:49:55.540Z,6.53
2019-02-16T19:52:35.509Z,6.49
2019-02-16T19:55:19.757Z,6.42
2019-02-16T19:58:09.381Z,6.39
2019-02-16T20:00:57.204Z,6.31
2019-02-16T20:03:45.106Z,6.35
2019-02-16T20:06:28.236Z,6.29
2019-02-16T20:09:20.996Z,6.25
2019-02-16T20:12:08.891Z,6.15
2019-02-16T20:15:10.438Z,6.16
2019-02-16T20:18:04.052Z,6.19
2019-02-16T20:21:26.287Z,6.20
2019-02-16T20:24:15.068Z,6.14
2019-02-16T20:26:54.163Z,6.06
2019-02-16T20:29:37.849Z,6.04
2019-02-16T20:32:24.044Z,6.13
2019-02-16T20:35:06.450Z,5.98
2019-02-16T20:38:14.031Z,5.89
2019-02-16T20:41:09.482Z,6.02
2019-02-16T20:44:06.761Z,5.88
2019-02-16T20:46:43.077Z,6.06
2019-02-16T20:49:35.318Z,5.78
2019-02-16T20:52:22.143Z,5.79
2019-02-16T20:55:07.533Z,5.95
2019-02-16T20:57:54.266Z,5.65
2019-02-16T21:00:47.330Z,5.76
2019-02-16T21:03:28.864Z,5.75
2019-02-16T21:06:26.932Z,5.77
2019-02-16T21:09:07.651Z,5.90
2019-02-16T21:11:49.800Z,5.65
2019-02-16T21:14:27.583Z,5.64
2019-02-16T21:17:13.008Z,5.67
2019-02-16T21:19:58.550Z,5.79
2019-02-16T21:22:39.543Z,5.54
2019-02-16T21:25:45.225Z,5.72
2019-02-16T21:28:21.876Z,5.69
2019-02-16T21:31:20.218Z,5.55
2019-02-16T21:34:10.569Z,5.66
2019-02-16T21:36:46.943Z,5.52
2019-02-16T21:39:38.522Z,5.19
2019-02-16T21:42:37.879Z,5.41
2019-02-16T21:45:42.297Z,5.40
2019-02-16T21:48:21.163Z,5.30
2019-02-16T21:51:09.391Z,5.39
2019-02-16T21:53:53.507Z,5.46
2019-02-16T21:56:30.287Z,5.45
2019-02-16T21:59:25.240Z,5.30
2019-02-16T22:02:10.201Z,5.31
2019-02-16T22:04:58.113Z,5.36
2019-02-16T22:07:53.351Z,5.34
2019-02-16T22:10:48.470Z,5.22
2019-02-16T22:13:18.691Z,5.12
2019-02-16T22:15:48.904Z,5.08
2019-02-16T22:18:19.239Z,5.01
2019-02-16T22:20:50.235Z,4.84
2019-02-16T22:23:20.579Z,5.06
2019-02-16T22:25:50.827Z,4.92
2019-02-16T22:28:30.617Z,4.79
2019-02-16T22:30:53.553Z,4.82
2019-02-16T22:33:23.844Z,4.76
2019-02-16T22:35:54.073Z,4.66
2019-02-16T22:38:24.278Z,4.71
2019-02-16T22:40:54.703Z,4.66
2019-02-16T22:43:25.069Z,4.58
2019-02-16T22:45:55.294Z,4.67
2019-02-16T22:48:25.498Z,4.51
2019-02-16T22:50:55.724Z,4.45
2019-02-16T22:53:25.983Z,4.61
2019-02-16T22:55:56.254Z,4.62
2019-02-16T22:58:28.884Z,4.47
2019-02-16T23:00:58.642Z,4.38
2019-02-16T23:03:30.446Z,4.41
2019-02-16T23:06:00.636Z,4.35
2019-02-16T23:08:30.844Z,4.31
2019-02-16T23:11:01.415Z,4.31
2019-02-16T23:13:32.079Z,4.32
2019-02-16T23:16:02.272Z,4.18
2019-02-16T23:18:32.506Z,4.13
2019-02-16T23:21:02.910Z,4.15
2019-02-16T23:23:33.169Z,4.07
2019-02-16T23:26:03.427Z,4.00
2019-02-16T23:28:38.840Z,3.87
2019-02-16T23:31:05.888Z,4.03
2019-02-16T23:33:36.112Z,3.73
2019-02-16T23:36:06.375Z,3.74
2019-02-16T23:38:36.565Z,3.67
2019-02-16T23:41:06.970Z,3.72
2019-02-16T23:43:37.179Z,3.78
2019-02-16T23:46:07.413Z,3.93
2019-02-16T23:48:37.667Z,3.88
2019-02-16T23:51:07.960Z,3.92
2019-02-16T23:53:38.204Z,3.76
2019-02-16T23:56:08.600Z,3.66
2019-02-16T23:58:48.740Z,3.56
